Main page
METAR-TAF:

METAR-TAF

Airports :

Annecy, France

Annecy – Haute-Savoie – Mont Blanc Airport

latitude: 45-55-45N, longitude: 006-05-56E, elevation: 463 m

Current weather observation

The report was made 22 minutes ago, at 00:00 UTC
Wind 9 kt from the North/Northwest, varying between Northwest and North
Temperature 0°C
Humidity 69%
Pressure 1008 hPa
Visibility: 7000 m
Overcast at a height of 3300 ft

METAR: LFLP 230000Z AUTO 34009KT 310V010 7000 OVC033 M00/M05 Q1008

Time: 01:22 (00:22 UTC)

Forecast

The report was made 10 hours and 22 minutes ago, at 14:00 UTC
Forecast valid from 22 at 15 UTC to 23 at 15 UTC
Wind 10 kt from the North
Visibility: 8000 m
Scattered clouds at a height of 1500 ft
Broken clouds at a height of 3500 ft
Probability 30% :
Temporary
from 22 at 15 UTC to 22 at 21 UTC

TAF: LFLP 221400Z 2215/2315 36010KT 8000 SCT015 BKN035 PROB30 TEMPO 2215/2221 NSC

Weather observations and forecasts of more than 4000 airports (METAR and TAF reports).

The available stations are represented by yellow and red dots on the map.

Hover mouse over dot to see the name of the station.

Then click to see weather observations and forecasts.

To change the map : click on the green buttons with a black cross to zoom in, on the green button with a dash to zoom out, or on the green arrows for adjacent maps.


METAR-TAF: